createdAt,value
2016-09-12T00:00:40.563Z,1015.44
2016-09-12T00:01:40.586Z,1015.43
2016-09-12T00:02:40.619Z,1015.44
2016-09-12T00:03:40.638Z,1015.46
2016-09-12T00:04:40.666Z,1015.43
2016-09-12T00:05:40.690Z,1015.46
2016-09-12T00:06:40.716Z,1015.46
2016-09-12T00:07:40.745Z,1015.42
2016-09-12T00:08:40.863Z,1015.41
2016-09-12T00:09:40.803Z,1015.43
2016-09-12T00:10:40.825Z,1015.46
2016-09-12T00:11:40.852Z,1015.46
2016-09-12T00:13:40.903Z,1015.45
2016-09-12T00:14:40.934Z,1015.48
2016-09-12T00:15:40.961Z,1015.45
2016-09-12T00:16:40.988Z,1015.44
2016-09-12T00:17:41.010Z,1015.42
2016-09-12T00:18:41.038Z,1015.49
2016-09-12T00:19:41.068Z,1015.44
2016-09-12T00:20:41.089Z,1015.47
2016-09-12T00:21:41.125Z,1015.5
2016-09-12T00:22:41.147Z,1015.47
2016-09-12T00:23:41.169Z,1015.49
2016-09-12T00:24:41.196Z,1015.51
2016-09-12T00:25:41.226Z,1015.48
2016-09-12T00:26:41.250Z,1015.5
2016-09-12T00:27:41.277Z,1015.49
2016-09-12T00:29:41.331Z,1015.47
2016-09-12T00:30:41.359Z,1015.46
2016-09-12T00:31:41.383Z,1015.47
2016-09-12T00:32:41.414Z,1015.45
2016-09-12T00:33:41.438Z,1015.44
2016-09-12T00:34:41.465Z,1015.42
2016-09-12T00:35:41.493Z,1015.42
2016-09-12T00:36:41.518Z,1015.44
2016-09-12T00:37:41.545Z,1015.44
2016-09-12T00:38:41.569Z,1015.44
2016-09-12T00:39:41.601Z,1015.44
2016-09-12T00:40:41.629Z,1015.46
2016-09-12T00:41:41.657Z,1015.49
2016-09-12T00:42:41.693Z,1015.49
2016-09-12T00:44:41.732Z,1015.49
2016-09-12T00:45:41.755Z,1015.47
2016-09-12T00:46:41.785Z,1015.47
2016-09-12T00:47:41.809Z,1015.47
2016-09-12T00:48:41.845Z,1015.47
2016-09-12T00:49:41.866Z,1015.45
2016-09-12T00:50:41.893Z,1015.44
2016-09-12T00:51:41.918Z,1015.45
2016-09-12T00:52:41.944Z,1015.44
2016-09-12T00:53:41.971Z,1015.45
2016-09-12T00:54:41.996Z,1015.45
2016-09-12T00:55:42.026Z,1015.4
2016-09-12T00:56:42.050Z,1015.43
2016-09-12T00:57:42.076Z,1015.42
2016-09-12T00:58:42.104Z,1015.42
2016-09-12T00:59:42.130Z,1015.42
2016-09-12T01:00:42.156Z,1015.42
2016-09-12T01:01:42.205Z,1015.44
2016-09-12T01:02:42.212Z,1015.42
2016-09-12T01:03:42.236Z,1015.42
2016-09-12T01:04:42.274Z,1015.43
2016-09-12T01:05:42.287Z,1015.4
2016-09-12T01:06:42.316Z,1015.44
2016-09-12T01:07:42.342Z,1015.36
2016-09-12T01:08:42.377Z,1015.36
2016-09-12T01:09:42.409Z,1015.43
2016-09-12T01:10:42.422Z,1015.39
2016-09-12T01:11:42.448Z,1015.37
2016-09-12T01:12:42.480Z,1015.34
2016-09-12T01:13:42.502Z,1015.38
2016-09-12T01:14:42.539Z,1015.4
2016-09-12T01:16:42.580Z,1015.37
2016-09-12T01:17:42.606Z,1015.36
2016-09-12T01:18:42.636Z,1015.37
2016-09-12T01:19:42.688Z,1015.34
2016-09-12T01:20:42.685Z,1015.37
2016-09-12T01:21:42.715Z,1015.36
2016-09-12T01:22:42.738Z,1015.37
2016-09-12T01:23:42.763Z,1015.37
2016-09-12T01:24:42.796Z,1015.36
2016-09-12T01:25:42.818Z,1015.37
2016-09-12T01:26:42.843Z,1015.33
2016-09-12T01:27:42.898Z,1015.36
2016-09-12T01:28:42.896Z,1015.31
2016-09-12T01:29:42.926Z,1015.36
2016-09-12T01:30:42.951Z,1015.36
2016-09-12T01:32:43.005Z,1015.36
2016-09-12T01:33:43.033Z,1015.37
2016-09-12T01:34:43.056Z,1015.31
2016-09-12T01:35:43.084Z,1015.34
2016-09-12T01:36:43.106Z,1015.38
2016-09-12T01:37:43.136Z,1015.35
2016-09-12T01:38:43.161Z,1015.33
2016-09-12T01:39:43.188Z,1015.36
2016-09-12T01:40:43.217Z,1015.34
2016-09-12T01:41:43.241Z,1015.33
2016-09-12T01:42:43.273Z,1015.31
2016-09-12T01:43:43.296Z,1015.32
2016-09-12T01:44:43.320Z,1015.36
2016-09-12T01:45:43.347Z,1015.34
2016-09-12T01:46:43.385Z,1015.32
2016-09-12T01:48:43.428Z,1015.33
2016-09-12T01:49:43.450Z,1015.31
2016-09-12T01:50:43.477Z,1015.33
2016-09-12T01:51:43.503Z,1015.32
2016-09-12T01:52:43.546Z,1015.3
2016-09-12T01:53:43.558Z,1015.3
2016-09-12T01:54:43.585Z,1015.31
2016-09-12T01:55:43.607Z,1015.31
2016-09-12T01:56:43.635Z,1015.28
2016-09-12T01:57:43.663Z,1015.3
2016-09-12T01:58:43.691Z,1015.31
2016-09-12T01:59:43.730Z,1015.32
2016-09-12T02:00:43.743Z,1015.28
2016-09-12T02:01:43.768Z,1015.29
2016-09-12T02:02:43.794Z,1015.3
2016-09-12T02:04:43.846Z,1015.29
2016-09-12T02:05:43.882Z,1015.28
2016-09-12T02:06:43.903Z,1015.3
2016-09-12T02:07:43.934Z,1015.31
2016-09-12T02:08:43.952Z,1015.3
2016-09-12T02:09:43.977Z,1015.24
2016-09-12T02:10:44.156Z,1015.27
2016-09-12T02:11:44.030Z,1015.26
2016-09-12T02:12:44.056Z,1015.26
2016-09-12T02:13:44.084Z,1015.25
2016-09-12T02:14:44.110Z,1015.26
2016-09-12T02:15:44.140Z,1015.21
2016-09-12T02:16:44.163Z,1015.26
2016-09-12T02:17:44.188Z,1015.27
2016-09-12T02:19:44.241Z,1015.26
2016-09-12T02:20:44.268Z,1015.24
2016-09-12T02:21:44.293Z,1015.22
2016-09-12T02:22:44.318Z,1015.22
2016-09-12T02:23:44.349Z,1015.26
2016-09-12T02:24:44.369Z,1015.24
2016-09-12T02:25:44.398Z,1015.2
2016-09-12T02:26:44.475Z,1015.22
2016-09-12T02:27:44.450Z,1015.21
2016-09-12T02:28:44.479Z,1015.22
2016-09-12T02:29:44.503Z,1015.18
2016-09-12T02:30:44.530Z,1015.25
2016-09-12T02:31:44.559Z,1015.25
2016-09-12T02:32:44.595Z,1015.25
2016-09-12T02:33:44.607Z,1015.24
2016-09-12T02:34:44.634Z,1015.22
2016-09-12T02:35:44.661Z,1015.21
2016-09-12T02:36:44.686Z,1015.21
2016-09-12T02:37:44.766Z,1015.23
2016-09-12T02:38:44.740Z,1015.19
2016-09-12T02:39:44.766Z,1015.22
2016-09-12T02:40:44.792Z,1015.21
2016-09-12T02:41:44.816Z,1015.21
2016-09-12T02:42:44.853Z,1015.17
2016-09-12T02:43:44.877Z,1015.18
2016-09-12T02:44:44.898Z,1015.19
2016-09-12T02:45:44.922Z,1015.21
2016-09-12T02:46:44.945Z,1015.18
2016-09-12T02:47:44.974Z,1015.2
2016-09-12T02:48:45.000Z,1015.2
2016-09-12T02:49:45.038Z,1015.21
2016-09-12T02:51:45.077Z,1015.2
2016-09-12T02:52:45.102Z,1015.19
2016-09-12T02:53:45.135Z,1015.19
2016-09-12T02:54:45.153Z,1015.17
2016-09-12T02:55:45.186Z,1015.2
2016-09-12T02:56:45.231Z,1015.15
2016-09-12T02:57:45.239Z,1015.17
2016-09-12T02:58:45.268Z,1015.13
2016-09-12T02:59:45.312Z,1015.11
2016-09-12T03:00:45.313Z,1015.15
2016-09-12T03:01:45.398Z,1015.08
2016-09-12T03:02:45.362Z,1015.07
2016-09-12T03:03:45.395Z,1015.09
2016-09-12T03:04:45.419Z,1015.09
2016-09-12T03:05:45.440Z,1015.09
2016-09-12T03:07:45.494Z,1015.08
2016-09-12T03:08:45.518Z,1015.1
2016-09-12T03:09:45.614Z,1015.12
2016-09-12T03:10:45.587Z,1015.15
2016-09-12T03:11:45.598Z,1015.1
2016-09-12T03:12:45.628Z,1015.15
2016-09-12T03:13:45.649Z,1015.16
2016-09-12T03:14:45.680Z,1015.18
2016-09-12T03:15:45.706Z,1015.18
2016-09-12T03:16:45.728Z,1015.21
2016-09-12T03:17:45.768Z,1015.19
2016-09-12T03:18:45.789Z,1015.19
2016-09-12T03:19:45.815Z,1015.18
2016-09-12T03:20:45.831Z,1015.2
2016-09-12T03:21:45.865Z,1015.2
2016-09-12T03:23:45.910Z,1015.2
2016-09-12T03:24:45.941Z,1015.18
2016-09-12T03:25:45.961Z,1015.18
2016-09-12T03:26:45.988Z,1015.13
2016-09-12T03:27:46.029Z,1015.11
2016-09-12T03:28:46.075Z,1015.14
2016-09-12T03:29:46.070Z,1015.13
2016-09-12T03:30:46.128Z,1015.18
2016-09-12T03:31:46.130Z,1015.14
2016-09-12T03:32:46.143Z,1015.14
2016-09-12T03:33:46.219Z,1015.12
2016-09-12T03:34:46.194Z,1015.11
2016-09-12T03:35:46.223Z,1015.14
2016-09-12T03:36:46.249Z,1015.11
2016-09-12T03:37:46.280Z,1015.12
2016-09-12T03:39:46.329Z,1015.12
2016-09-12T03:40:46.353Z,1015.1
2016-09-12T03:41:46.379Z,1015.11
2016-09-12T03:42:46.410Z,1015.08
2016-09-12T03:43:46.430Z,1015.07
2016-09-12T03:44:46.458Z,1015.1
2016-09-12T03:45:46.479Z,1015.09
2016-09-12T03:46:46.508Z,1015.09
2016-09-12T03:47:46.532Z,1015.1
2016-09-12T03:48:46.558Z,1015.1
2016-09-12T03:49:46.583Z,1015.05
2016-09-12T03:50:46.609Z,1015.09
2016-09-12T03:51:46.635Z,1015.08
2016-09-12T03:52:46.662Z,1015.09
2016-09-12T03:54:46.719Z,1015.06
2016-09-12T03:55:46.747Z,1015.08
2016-09-12T03:56:46.771Z,1015.03
2016-09-12T03:57:46.792Z,1015.03
2016-09-12T03:58:46.825Z,1015.03
2016-09-12T03:59:46.844Z,1015.06
2016-09-12T04:00:46.871Z,1015.01
2016-09-12T04:01:46.898Z,1015.06
2016-09-12T04:02:46.921Z,1015.05
2016-09-12T04:03:46.949Z,1015.05
2016-09-12T04:04:46.980Z,1015.03
2016-09-12T04:05:47.001Z,1015.02
2016-09-12T04:06:47.026Z,1015.03
2016-09-12T04:07:47.058Z,1015.06
2016-09-12T04:08:47.080Z,1015.03
2016-09-12T04:09:47.104Z,1015.05
2016-09-12T04:10:47.136Z,1015.05
2016-09-12T04:11:47.187Z,1015.02
2016-09-12T04:12:47.183Z,1015.03
2016-09-12T04:13:47.208Z,1015.04
2016-09-12T04:14:47.230Z,1015.03
2016-09-12T04:15:47.257Z,1015.01
2016-09-12T04:16:47.380Z,1015
2016-09-12T04:17:47.678Z,1015
2016-09-12T04:18:47.336Z,1015.01
2016-09-12T04:19:47.362Z,1015
2016-09-12T04:20:47.392Z,1015.04
2016-09-12T04:21:47.415Z,1015.01
2016-09-12T04:22:47.500Z,1015.02
2016-09-12T04:23:47.466Z,1015.02
2016-09-12T04:24:47.491Z,1015.05
2016-09-12T04:26:47.552Z,1015.04
2016-09-12T04:27:47.569Z,1015.08
2016-09-12T04:28:47.595Z,1015.02
2016-09-12T04:29:47.621Z,1015.04
2016-09-12T04:30:47.657Z,1015.05
2016-09-12T04:31:47.671Z,1015.07
2016-09-12T04:32:47.695Z,1015.08
2016-09-12T04:33:47.724Z,1015.08
2016-09-12T04:34:47.747Z,1015.06
2016-09-12T04:35:47.774Z,1015.05
2016-09-12T04:36:47.803Z,1015.09
2016-09-12T04:37:47.837Z,1015.1
2016-09-12T04:38:47.853Z,1015.06
2016-09-12T04:39:47.876Z,1015.09
2016-09-12T04:40:47.901Z,1015.03
2016-09-12T04:42:47.958Z,1015.09
2016-09-12T04:43:47.981Z,1015.07
2016-09-12T04:44:48.006Z,1015.09
2016-09-12T04:45:48.033Z,1015.1
2016-09-12T04:46:48.057Z,1015.1
2016-09-12T04:47:48.085Z,1015.05
2016-09-12T04:48:48.108Z,1015.07
2016-09-12T04:49:48.135Z,1015.1
2016-09-12T04:50:48.159Z,1015.14
2016-09-12T04:51:48.186Z,1015.09
2016-09-12T04:52:48.210Z,1015.12
2016-09-12T04:53:48.240Z,1015.11
2016-09-12T04:54:48.264Z,1015.11
2016-09-12T04:55:48.293Z,1015.1
2016-09-12T04:56:48.343Z,1015.15
2016-09-12T04:58:48.365Z,1015.13
2016-09-12T04:59:48.393Z,1015.13
2016-09-12T05:00:48.417Z,1015.17
2016-09-12T05:01:48.442Z,1015.18
2016-09-12T05:02:48.467Z,1015.16
2016-09-12T05:03:48.495Z,1015.16
2016-09-12T05:04:48.523Z,1015.18
2016-09-12T05:05:48.548Z,1015.12
2016-09-12T05:06:48.573Z,1015.15
2016-09-12T05:07:48.603Z,1015.15
2016-09-12T05:08:48.622Z,1015.17
2016-09-12T05:09:48.649Z,1015.17
2016-09-12T05:10:48.675Z,1015.17
2016-09-12T05:11:48.703Z,1015.16
2016-09-12T05:12:48.725Z,1015.16
2016-09-12T05:14:48.785Z,1015.16
2016-09-12T05:15:48.805Z,1015.2
2016-09-12T05:16:48.830Z,1015.18
2016-09-12T05:17:48.856Z,1015.16
2016-09-12T05:18:48.885Z,1015.17
2016-09-12T05:19:48.919Z,1015.19
2016-09-12T05:20:48.939Z,1015.15
2016-09-12T05:21:48.962Z,1015.17
2016-09-12T05:22:48.985Z,1015.21
2016-09-12T05:23:49.011Z,1015.2
2016-09-12T05:24:49.037Z,1015.18
2016-09-12T05:25:49.067Z,1015.21
2016-09-12T05:26:49.093Z,1015.18
2016-09-12T05:27:49.120Z,1015.19
2016-09-12T05:29:49.170Z,1015.23
2016-09-12T05:30:49.196Z,1015.23
2016-09-12T05:31:49.223Z,1015.18
2016-09-12T05:32:49.247Z,1015.25
2016-09-12T05:33:49.280Z,1015.26
2016-09-12T05:34:49.301Z,1015.23
2016-09-12T05:35:49.331Z,1015.26
2016-09-12T05:36:49.351Z,1015.27
2016-09-12T05:37:49.378Z,1015.28
2016-09-12T05:38:49.420Z,1015.28
2016-09-12T05:39:49.433Z,1015.28
2016-09-12T05:40:49.471Z,1015.21
2016-09-12T05:41:49.489Z,1015.23
2016-09-12T05:42:49.514Z,1015.24
2016-09-12T05:43:49.541Z,1015.3
2016-09-12T05:44:49.565Z,1015.25
2016-09-12T05:45:49.612Z,1015.27
2016-09-12T05:46:49.618Z,1015.29
2016-09-12T05:47:49.648Z,1015.32
2016-09-12T05:48:49.668Z,1015.29
2016-09-12T05:49:49.705Z,1015.27
2016-09-12T05:50:49.722Z,1015.27
2016-09-12T05:51:49.754Z,1015.3
2016-09-12T05:52:49.777Z,1015.3
2016-09-12T05:53:49.829Z,1015.37
2016-09-12T05:54:49.827Z,1015.47
2016-09-12T05:55:49.859Z,1015.52
2016-09-12T05:56:49.879Z,1015.58
2016-09-12T05:57:49.909Z,1015.61
2016-09-12T05:58:49.933Z,1015.67
2016-09-12T05:59:49.972Z,1015.62
2016-09-12T06:01:50.024Z,1015.7
2016-09-12T06:02:50.046Z,1015.72
2016-09-12T06:03:50.077Z,1015.72
2016-09-12T06:04:50.102Z,1015.76
2016-09-12T06:05:50.131Z,1015.77
2016-09-12T06:06:50.159Z,1015.75
2016-09-12T06:07:50.190Z,1015.77
2016-09-12T06:08:50.223Z,1015.82
2016-09-12T06:09:50.738Z,1015.85
2016-09-12T06:10:50.292Z,1015.91
2016-09-12T06:11:50.317Z,1015.88
2016-09-12T06:12:50.384Z,1015.93
2016-09-12T06:13:50.386Z,1015.95
2016-09-12T06:14:50.404Z,1015.97
2016-09-12T06:15:50.438Z,1016
2016-09-12T06:17:50.486Z,1016.16
2016-09-12T06:18:50.516Z,1016.2
2016-09-12T06:19:50.546Z,1016.2
2016-09-12T06:20:51.360Z,1016.3
2016-09-12T06:21:54.611Z,1016.43
2016-09-12T06:23:28.505Z,1016.47
2016-09-12T06:24:35.143Z,1016.51
2016-09-12T06:25:35.163Z,1016.58
2016-09-12T06:26:35.198Z,1016.58
2016-09-12T06:29:35.292Z,1016.61
2016-09-12T06:30:35.324Z,1016.66
2016-09-12T06:31:35.383Z,1016.68
2016-09-12T06:32:35.390Z,1016.71
2016-09-12T06:33:35.424Z,1016.72
2016-09-12T06:34:35.458Z,1016.76
2016-09-12T06:35:35.489Z,1016.83
2016-09-12T06:36:35.523Z,1016.83
2016-09-12T06:37:35.557Z,1016.8
2016-09-12T06:38:35.588Z,1016.84
2016-09-12T06:39:35.623Z,1016.84
2016-09-12T06:40:35.710Z,1016.9
2016-09-12T06:58:56.023Z,1016.54
2016-09-12T07:06:01.087Z,1016.58
2016-09-12T07:10:42.067Z,1016.56
2016-09-12T07:11:51.588Z,1016.55
2016-09-12T12:49:02.516Z,1014.63
2016-09-12T12:51:15.320Z,1014.6
2016-09-12T12:52:15.351Z,1014.59
2016-09-12T12:53:28.095Z,1014.61
2016-09-12T13:03:10.752Z,1014.64
2016-09-12T13:08:23.605Z,1014.52
2016-09-12T13:09:23.636Z,1014.5
2016-09-12T13:18:34.420Z,1014.56
2016-09-12T13:19:34.449Z,1014.53
2016-09-12T13:22:34.548Z,1014.48
2016-09-12T13:23:34.583Z,1014.49
2016-09-12T13:24:34.616Z,1014.47
2016-09-12T13:25:34.648Z,1014.46
2016-09-12T13:26:34.681Z,1014.47
2016-09-12T13:27:34.712Z,1014.45
2016-09-12T13:28:34.745Z,1014.44
2016-09-12T13:29:34.780Z,1014.45
2016-09-12T13:30:34.813Z,1014.43
2016-09-12T13:32:34.880Z,1014.45
2016-09-12T13:33:34.911Z,1014.44
2016-09-12T13:34:34.942Z,1014.44
2016-09-12T13:35:34.977Z,1014.33
2016-09-12T13:36:35.008Z,1014.47
2016-09-12T13:37:35.040Z,1014.39
2016-09-12T13:38:35.074Z,1014.39
2016-09-12T13:39:35.107Z,1014.37
2016-09-12T13:40:35.139Z,1014.35
2016-09-12T13:41:35.173Z,1014.35
2016-09-12T13:42:35.206Z,1014.4
2016-09-12T13:43:35.239Z,1014.35
2016-09-12T13:44:35.270Z,1014.36
2016-09-12T13:45:35.302Z,1014.34
2016-09-12T13:46:35.334Z,1014.33
2016-09-12T13:47:35.367Z,1014.35
2016-09-12T13:48:35.399Z,1014.36
2016-09-12T13:49:35.433Z,1014.33
2016-09-12T13:50:35.471Z,1014.32
2016-09-12T13:51:35.497Z,1014.29
2016-09-12T13:52:35.529Z,1014.32
2016-09-12T13:53:35.563Z,1014.31
2016-09-12T13:54:35.596Z,1014.31
2016-09-12T13:55:35.627Z,1014.32
2016-09-12T13:56:35.662Z,1014.32
2016-09-12T13:57:35.693Z,1014.29
2016-09-12T13:58:35.728Z,1014.31
2016-09-12T13:59:35.759Z,1014.33
2016-09-12T14:00:35.793Z,1014.31
2016-09-12T14:01:35.826Z,1014.3
2016-09-12T14:02:35.858Z,1014.29
2016-09-12T14:04:35.923Z,1014.31
2016-09-12T14:05:35.957Z,1014.27
2016-09-12T14:06:35.986Z,1014.31
2016-09-12T14:07:36.020Z,1014.3
2016-09-12T14:08:36.055Z,1014.28
2016-09-12T14:09:36.086Z,1014.26
2016-09-12T14:10:36.119Z,1014.27
2016-09-12T14:11:36.150Z,1014.32
2016-09-12T14:12:36.184Z,1014.29
2016-09-12T14:13:36.217Z,1014.25
2016-09-12T14:14:36.248Z,1014.25
2016-09-12T14:15:36.281Z,1014.27
2016-09-12T14:16:36.316Z,1014.27
2016-09-12T14:17:36.347Z,1014.26
2016-09-12T14:18:36.381Z,1014.22
2016-09-12T14:20:36.447Z,1014.23
2016-09-12T14:21:36.478Z,1014.21
2016-09-12T14:22:36.510Z,1014.23
2016-09-12T14:23:36.544Z,1014.18
2016-09-12T14:24:36.574Z,1014.19
2016-09-12T14:25:36.609Z,1014.18
2016-09-12T14:26:36.641Z,1014.13
2016-09-12T14:27:36.673Z,1014.16
2016-09-12T14:28:36.706Z,1014.13
2016-09-12T14:29:36.736Z,1014.18
2016-09-12T14:30:36.772Z,1014.21
2016-09-12T14:31:36.809Z,1014.19
2016-09-12T14:32:36.837Z,1014.17
2016-09-12T14:33:36.868Z,1014.17
2016-09-12T14:34:36.900Z,1014.15
2016-09-12T14:36:36.965Z,1014.14
2016-09-12T14:37:36.997Z,1014.15
2016-09-12T14:38:37.031Z,1014.15
2016-09-12T14:39:37.064Z,1014.15
2016-09-12T14:40:37.105Z,1014.17
2016-09-12T14:41:37.128Z,1014.17
2016-09-12T14:42:37.160Z,1014.16
2016-09-12T14:43:37.193Z,1014.11
2016-09-12T14:44:37.225Z,1014.15
2016-09-12T14:45:37.260Z,1014.18
2016-09-12T14:46:37.289Z,1014.17
2016-09-12T14:47:37.325Z,1014.13
2016-09-12T14:48:37.357Z,1014.17
2016-09-12T14:49:37.389Z,1014.19
2016-09-12T14:50:37.426Z,1014.17
2016-09-12T14:52:37.489Z,1014.19
2016-09-12T14:53:37.530Z,1014.17
2016-09-12T14:54:37.552Z,1014.13
2016-09-12T14:55:37.586Z,1014.12
2016-09-12T14:56:37.615Z,1014.13
2016-09-12T14:57:37.647Z,1014.13
2016-09-12T14:58:37.683Z,1014.13
2016-09-12T14:59:37.714Z,1014.13
2016-09-12T15:00:37.745Z,1014.13
2016-09-12T15:01:37.778Z,1014.14
2016-09-12T15:02:37.813Z,1014.13
2016-09-12T15:03:37.843Z,1014.13
2016-09-12T15:04:37.877Z,1014.21
2016-09-12T15:05:37.909Z,1014.14
2016-09-12T15:07:38.235Z,1014.13
2016-09-12T15:08:38.007Z,1014.13
2016-09-12T15:09:38.037Z,1014.13
2016-09-12T15:10:38.071Z,1014.1
2016-09-12T15:11:38.102Z,1014.13
2016-09-12T15:12:38.134Z,1014.14
2016-09-12T15:13:38.168Z,1014.09
2016-09-12T15:14:38.200Z,1014.1
2016-09-12T15:15:38.232Z,1014.09
2016-09-12T15:16:38.263Z,1014.09
2016-09-12T15:17:38.297Z,1014.08
2016-09-12T15:18:38.329Z,1014.08
2016-09-12T15:19:38.361Z,1014.09
2016-09-12T15:20:38.393Z,1014.07
2016-09-12T15:21:38.428Z,1014.04
2016-09-12T15:22:38.461Z,1014.05
2016-09-12T15:23:38.490Z,1014.04
2016-09-12T15:24:38.525Z,1014.07
2016-09-12T15:25:38.555Z,1014.04
2016-09-12T15:26:38.589Z,1014.09
2016-09-12T15:27:38.622Z,1014.07
2016-09-12T15:28:38.651Z,1014.01
2016-09-12T15:29:38.685Z,1014.05
2016-09-12T15:30:38.716Z,1014.04
2016-09-12T15:31:38.750Z,1014.05
2016-09-12T15:32:38.780Z,1014.02
2016-09-12T15:33:38.815Z,1014.08
2016-09-12T15:34:38.847Z,1014.04
2016-09-12T15:35:38.877Z,1014.09
2016-09-12T15:36:38.912Z,1014.07
2016-09-12T15:37:38.941Z,1014.06
2016-09-12T15:39:39.006Z,1014.09
2016-09-12T15:40:39.041Z,1014.07
2016-09-12T15:41:39.070Z,1014.06
2016-09-12T15:42:39.102Z,1014.02
2016-09-12T15:43:39.136Z,1014.08
2016-09-12T15:44:39.217Z,1014.02
2016-09-12T15:45:39.201Z,1014.02
2016-09-12T15:46:39.232Z,1013.99
2016-09-12T15:47:39.266Z,1014
2016-09-12T15:48:39.295Z,1013.99
2016-09-12T15:49:39.326Z,1014
2016-09-12T15:50:39.359Z,1013.99
2016-09-12T15:51:39.442Z,1013.97
2016-09-12T15:52:39.425Z,1013.97
2016-09-12T15:53:39.455Z,1013.95
2016-09-12T15:55:39.524Z,1013.94
2016-09-12T15:56:39.557Z,1013.96
2016-09-12T15:57:39.585Z,1013.95
2016-09-12T15:58:39.618Z,1013.95
2016-09-12T15:59:39.649Z,1013.96
2016-09-12T16:00:39.681Z,1013.98
2016-09-12T16:01:39.712Z,1013.98
2016-09-12T16:02:39.746Z,1013.96
2016-09-12T16:03:39.777Z,1013.93
2016-09-12T16:04:39.808Z,1013.91
2016-09-12T16:05:39.842Z,1013.94
2016-09-12T16:06:39.875Z,1013.95
2016-09-12T16:07:39.905Z,1013.92
2016-09-12T16:08:39.939Z,1013.92
2016-09-12T16:09:39.968Z,1013.9
2016-09-12T16:11:40.032Z,1013.9
2016-09-12T16:12:40.066Z,1013.9
2016-09-12T16:13:40.098Z,1013.88
2016-09-12T16:14:40.127Z,1013.91
2016-09-12T16:15:40.160Z,1013.89
2016-09-12T16:16:40.194Z,1013.9
2016-09-12T16:17:40.227Z,1013.85
2016-09-12T16:18:40.257Z,1013.85
2016-09-12T16:19:40.288Z,1013.86
2016-09-12T16:20:40.322Z,1013.87
2016-09-12T16:21:40.352Z,1013.88
2016-09-12T16:22:40.383Z,1013.86
2016-09-12T16:23:40.416Z,1013.88
2016-09-12T16:24:40.449Z,1013.88
2016-09-12T16:25:40.480Z,1013.88
2016-09-12T16:27:40.544Z,1013.83
2016-09-12T16:28:40.574Z,1013.85
2016-09-12T16:29:40.606Z,1013.87
2016-09-12T16:30:40.639Z,1013.84
2016-09-12T16:31:40.669Z,1013.86
2016-09-12T16:32:40.701Z,1013.89
2016-09-12T16:33:40.744Z,1013.88
2016-09-12T16:34:40.764Z,1013.85
2016-09-12T16:35:40.799Z,1013.89
2016-09-12T16:36:40.827Z,1013.88
2016-09-12T16:37:40.861Z,1013.88
2016-09-12T16:38:40.891Z,1013.88
2016-09-12T16:39:40.923Z,1013.87
2016-09-12T16:40:40.957Z,1013.92
2016-09-12T16:42:41.020Z,1013.9
2016-09-12T16:43:41.050Z,1013.85
2016-09-12T16:44:41.083Z,1013.84
2016-09-12T16:45:41.115Z,1013.89
2016-09-12T16:46:41.145Z,1013.88
2016-09-12T16:47:41.175Z,1013.87
2016-09-12T16:48:41.206Z,1013.88
2016-09-12T16:49:41.243Z,1013.87
2016-09-12T16:50:41.271Z,1013.87
2016-09-12T16:51:41.303Z,1013.84
2016-09-12T16:52:41.334Z,1013.85
2016-09-12T16:53:41.365Z,1013.82
2016-09-12T16:54:41.396Z,1013.8
2016-09-12T16:55:41.429Z,1013.84
2016-09-12T16:56:41.460Z,1013.87
2016-09-12T16:57:41.490Z,1013.84
2016-09-12T16:58:41.522Z,1013.84
2016-09-12T16:59:41.554Z,1013.81
2016-09-12T17:00:41.585Z,1013.84
2016-09-12T17:01:41.617Z,1013.82
2016-09-12T17:02:41.647Z,1013.81
2016-09-12T17:03:41.677Z,1013.82
2016-09-12T17:04:41.708Z,1013.78
2016-09-12T17:05:41.741Z,1013.77
2016-09-12T17:06:41.770Z,1013.77
2016-09-12T17:07:41.808Z,1013.78
2016-09-12T17:08:41.833Z,1013.76
2016-09-12T17:09:41.863Z,1013.81
2016-09-12T17:10:41.897Z,1013.77
2016-09-12T17:11:41.928Z,1013.77
2016-09-12T17:12:41.957Z,1013.76
2016-09-12T17:14:42.019Z,1013.75
2016-09-12T17:15:42.051Z,1013.76
2016-09-12T17:16:42.083Z,1013.81
2016-09-12T17:17:42.112Z,1013.81
2016-09-12T17:18:42.145Z,1013.77
2016-09-12T17:19:42.177Z,1013.82
2016-09-12T17:20:42.205Z,1013.77
2016-09-12T17:21:42.237Z,1013.8
2016-09-12T17:22:42.269Z,1013.78
2016-09-12T17:23:42.298Z,1013.78
2016-09-12T17:24:42.329Z,1013.77
2016-09-12T17:25:42.361Z,1013.8
2016-09-12T17:26:42.391Z,1013.78
2016-09-12T17:27:42.423Z,1013.79
2016-09-12T17:28:42.454Z,1013.82
2016-09-12T17:30:42.514Z,1013.8
2016-09-12T17:31:42.547Z,1013.78
2016-09-12T17:32:42.578Z,1013.83
2016-09-12T17:33:42.608Z,1013.84
2016-09-12T17:34:42.639Z,1013.81
2016-09-12T17:35:42.670Z,1013.86
2016-09-12T17:36:42.699Z,1013.84
2016-09-12T17:37:42.731Z,1013.85
2016-09-12T17:38:42.760Z,1013.85
2016-09-12T17:39:42.793Z,1013.84
2016-09-12T17:40:42.824Z,1013.88
2016-09-12T17:41:42.852Z,1013.9
2016-09-12T17:42:42.886Z,1013.86
2016-09-12T17:43:42.916Z,1013.88
2016-09-12T17:44:42.944Z,1013.89
2016-09-12T17:46:43.006Z,1013.9
2016-09-12T17:47:43.036Z,1013.91
2016-09-12T17:48:43.074Z,1013.85
2016-09-12T17:49:43.099Z,1013.89
2016-09-12T17:50:43.133Z,1013.88
2016-09-12T17:51:43.160Z,1013.89
2016-09-12T17:52:43.188Z,1013.9
2016-09-12T17:53:43.230Z,1013.89
2016-09-12T17:54:43.251Z,1013.89
2016-09-12T17:55:43.280Z,1013.88
2016-09-12T17:56:43.316Z,1013.89
2016-09-12T17:57:43.343Z,1013.91
2016-09-12T17:58:43.373Z,1013.92
2016-09-12T17:59:43.404Z,1013.92
2016-09-12T18:00:43.433Z,1013.94
2016-09-12T18:02:43.492Z,1013.95
2016-09-12T18:03:43.525Z,1013.93
2016-09-12T18:04:43.559Z,1014
2016-09-12T18:05:43.583Z,1013.96
2016-09-12T18:06:43.615Z,1013.99
2016-09-12T18:07:43.643Z,1014
2016-09-12T18:08:43.673Z,1013.98
2016-09-12T18:09:43.704Z,1013.98
2016-09-12T18:10:43.734Z,1014
2016-09-12T18:11:43.767Z,1013.98
2016-09-12T18:12:43.795Z,1014.02
2016-09-12T18:13:43.825Z,1014.03
2016-09-12T18:14:43.856Z,1014.03
2016-09-12T18:15:43.888Z,1014.04
2016-09-12T18:17:43.948Z,1014.02
2016-09-12T18:18:43.978Z,1014.06
2016-09-12T18:19:44.007Z,1014.03
2016-09-12T18:20:44.037Z,1014.07
2016-09-12T18:21:44.069Z,1014.07
2016-09-12T18:22:44.097Z,1014.09
2016-09-12T18:23:44.126Z,1014.08
2016-09-12T18:24:44.157Z,1014.05
2016-09-12T18:25:44.186Z,1014.04
2016-09-12T18:26:44.219Z,1014.04
2016-09-12T18:27:44.249Z,1014.03
2016-09-12T18:28:44.278Z,1014
2016-09-12T18:29:44.306Z,1013.99
2016-09-12T18:30:44.339Z,1013.99
2016-09-12T18:31:44.370Z,1013.99
2016-09-12T18:32:44.401Z,1013.98
2016-09-12T18:33:44.429Z,1014.01
2016-09-12T18:34:44.456Z,1013.98
2016-09-12T18:35:44.488Z,1014
2016-09-12T18:36:44.518Z,1014
2016-09-12T18:37:44.547Z,1013.98
2016-09-12T18:38:44.576Z,1014.02
2016-09-12T18:39:44.609Z,1013.97
2016-09-12T18:40:44.636Z,1014.02
2016-09-12T18:41:44.691Z,1013.99
2016-09-12T18:42:44.699Z,1014.04
2016-09-12T18:43:44.729Z,1014.03
2016-09-12T18:44:44.756Z,1014.03
2016-09-12T18:45:44.785Z,1014.05
2016-09-12T18:46:44.818Z,1014.04
2016-09-12T18:47:44.847Z,1014.06
2016-09-12T18:49:44.907Z,1014.09
2016-09-12T18:50:44.939Z,1014.09
2016-09-12T18:51:44.963Z,1014.09
2016-09-12T18:52:44.996Z,1014.1
2016-09-12T18:53:45.023Z,1014.11
2016-09-12T18:54:45.054Z,1014.1
2016-09-12T18:55:45.083Z,1014.11
2016-09-12T18:56:45.114Z,1014.12
2016-09-12T18:57:45.143Z,1014.13
2016-09-12T18:58:45.174Z,1014.13
2016-09-12T18:59:45.204Z,1014.1
2016-09-12T19:00:45.230Z,1014.12
2016-09-12T19:01:45.263Z,1014.07
2016-09-12T19:02:45.292Z,1014.1
2016-09-12T19:03:45.323Z,1014.13
2016-09-12T19:05:45.382Z,1014.15
2016-09-12T19:06:45.408Z,1014.17
2016-09-12T19:07:45.440Z,1014.16
2016-09-12T19:08:45.470Z,1014.2
2016-09-12T19:09:45.497Z,1014.19
2016-09-12T19:10:45.578Z,1014.22
2016-09-12T19:11:45.557Z,1014.21
2016-09-12T19:12:45.586Z,1014.23
2016-09-12T19:13:45.616Z,1014.23
2016-09-12T19:14:45.647Z,1014.23
2016-09-12T19:15:45.674Z,1014.25
2016-09-12T19:16:45.703Z,1014.25
2016-09-12T19:17:45.733Z,1014.25